Terminal Aerodrome Forecast
Issued by NWS Rapid City, SD

Home | Current Version | Previous Version | Graphics & Text | Print | Product List | Glossary On
Versions: 1 2 3 4 5 6 7 8 9 10 11 12 13 14 15 16 17 18
826
FTUS43 KUNR 251917 AAA
TAFRAP
TAF AMD
KRAP 251917Z 2519/2618 32010KT P6SM SCT030 BKN050
      TEMPO 2519/2522 5SM -SHRASN OVC025
     FM260100 28005KT P6SM OVC050
     FM260900 31005KT P6SM SCT250=

USA.gov is the U.S. government's official web portal to all federal, state and local government web resources and services.